sensor_id;sensor_type;location;lat;lon;timestamp;pressure;altitude;pressure_sealevel;temperature;humidity
5550;BME280;2798;42.716;23.256;2023-12-04T00:01:45;95208.75;;;5.11;62.96
5550;BME280;2798;42.716;23.256;2023-12-04T00:04:11;95209.63;;;5.10;62.31
5550;BME280;2798;42.716;23.256;2023-12-04T00:06:36;95202.81;;;5.10;62.74
5550;BME280;2798;42.716;23.256;2023-12-04T00:09:02;95207.91;;;5.10;62.33
5550;BME280;2798;42.716;23.256;2023-12-04T00:11:27;95212.19;;;5.10;62.69
5550;BME280;2798;42.716;23.256;2023-12-04T00:13:52;95213.03;;;5.10;62.62
5550;BME280;2798;42.716;23.256;2023-12-04T00:16:18;95224.94;;;5.10;62.47
5550;BME280;2798;42.716;23.256;2023-12-04T00:18:43;95232.59;;;5.10;62.49
5550;BME280;2798;42.716;23.256;2023-12-04T00:21:08;95229.16;;;5.11;62.38
5550;BME280;2798;42.716;23.256;2023-12-04T00:23:34;95237.63;;;5.11;62.55
5550;BME280;2798;42.716;23.256;2023-12-04T00:25:59;95238.47;;;5.12;62.40
5550;BME280;2798;42.716;23.256;2023-12-04T00:28:24;95244.53;;;5.09;62.60
5550;BME280;2798;42.716;23.256;2023-12-04T00:30:50;95233.50;;;5.09;62.35
5550;BME280;2798;42.716;23.256;2023-12-04T00:33:15;95246.25;;;5.09;62.17
5550;BME280;2798;42.716;23.256;2023-12-04T00:35:40;95239.50;;;5.07;61.97
5550;BME280;2798;42.716;23.256;2023-12-04T00:38:06;95231.97;;;5.04;61.89
5550;BME280;2798;42.716;23.256;2023-12-04T00:40:31;95241.41;;;5.02;61.81
5550;BME280;2798;42.716;23.256;2023-12-04T00:42:56;95261.06;;;5.00;61.17
5550;BME280;2798;42.716;23.256;2023-12-04T00:45:22;95247.53;;;4.98;61.07
5550;BME280;2798;42.716;23.256;2023-12-04T00:47:47;95249.31;;;4.96;60.84
5550;BME280;2798;42.716;23.256;2023-12-04T00:50:12;95263.03;;;4.93;61.36
5550;BME280;2798;42.716;23.256;2023-12-04T00:52:37;95260.53;;;4.92;60.87
5550;BME280;2798;42.716;23.256;2023-12-04T00:55:03;95265.69;;;4.90;60.98
5550;BME280;2798;42.716;23.256;2023-12-04T00:57:28;95253.91;;;4.88;61.11
5550;BME280;2798;42.716;23.256;2023-12-04T00:59:54;95265.03;;;4.87;61.54
5550;BME280;2798;42.716;23.256;2023-12-04T01:02:19;95257.44;;;4.85;60.66
5550;BME280;2798;42.716;23.256;2023-12-04T01:04:44;95227.03;;;4.58;61.17
5550;BME280;2798;42.716;23.256;2023-12-04T01:07:10;95260.03;;;4.84;61.41
5550;BME280;2798;42.716;23.256;2023-12-04T01:09:35;95267.69;;;4.84;60.77
5550;BME280;2798;42.716;23.256;2023-12-04T01:12:01;95265.97;;;4.84;61.41
5550;BME280;2798;42.716;23.256;2023-12-04T01:14:26;95269.34;;;4.85;61.34
5550;BME280;2798;42.716;23.256;2023-12-04T01:16:51;95264.25;;;4.85;61.69
5550;BME280;2798;42.716;23.256;2023-12-04T01:19:17;95261.56;;;4.88;61.90
5550;BME280;2798;42.716;23.256;2023-12-04T01:21:42;95264.13;;;4.88;61.83
5550;BME280;2798;42.716;23.256;2023-12-04T01:24:07;95265.75;;;4.89;61.97
5550;BME280;2798;42.716;23.256;2023-12-04T01:26:33;95280.25;;;4.88;61.54
5550;BME280;2798;42.716;23.256;2023-12-04T01:28:58;95262.47;;;4.87;61.65
5550;BME280;2798;42.716;23.256;2023-12-04T01:31:24;95264.25;;;4.85;61.86
5550;BME280;2798;42.716;23.256;2023-12-04T01:33:49;95273.53;;;4.86;61.67
5550;BME280;2798;42.716;23.256;2023-12-04T01:36:15;95262.59;;;4.84;61.29
5550;BME280;2798;42.716;23.256;2023-12-04T01:38:40;95271.13;;;4.82;61.30
5550;BME280;2798;42.716;23.256;2023-12-04T01:41:05;95280.53;;;4.80;61.55
5550;BME280;2798;42.716;23.256;2023-12-04T01:43:31;95275.63;;;4.76;60.86
5550;BME280;2798;42.716;23.256;2023-12-04T01:45:56;95290.13;;;4.75;60.79
5550;BME280;2798;42.716;23.256;2023-12-04T01:48:22;95293.47;;;4.76;60.44
5550;BME280;2798;42.716;23.256;2023-12-04T01:50:48;95284.19;;;4.75;60.96
5550;BME280;2798;42.716;23.256;2023-12-04T01:53:13;95286.81;;;4.73;60.97
5550;BME280;2798;42.716;23.256;2023-12-04T01:55:39;95285.16;;;4.72;60.52
5550;BME280;2798;42.716;23.256;2023-12-04T01:58:04;95282.53;;;4.74;61.27
5550;BME280;2798;42.716;23.256;2023-12-04T02:00:30;95283.41;;;4.73;60.99
5550;BME280;2798;42.716;23.256;2023-12-04T02:02:56;95326.69;;;4.74;61.51
5550;BME280;2798;42.716;23.256;2023-12-04T02:05:23;95293.47;;;4.76;60.79
5550;BME280;2798;42.716;23.256;2023-12-04T02:07:48;95296.81;;;4.78;61.16
5550;BME280;2798;42.716;23.256;2023-12-04T02:10:13;95245.84;;;4.55;67.24
5550;BME280;2798;42.716;23.256;2023-12-04T02:12:39;95286.88;;;4.92;68.10
5550;BME280;2798;42.716;23.256;2023-12-04T02:15:04;95297.09;;;4.92;67.00
5550;BME280;2798;42.716;23.256;2023-12-04T02:17:30;95295.44;;;4.91;65.98
5550;BME280;2798;42.716;23.256;2023-12-04T02:19:56;95315.06;;;4.89;64.91
5550;BME280;2798;42.716;23.256;2023-12-04T02:22:22;95299.03;;;4.86;64.33
5550;BME280;2798;42.716;23.256;2023-12-04T02:24:47;95315.38;;;4.81;63.50
5550;BME280;2798;42.716;23.256;2023-12-04T02:27:17;95306.03;;;4.80;62.68
5550;BME280;2798;42.716;23.256;2023-12-04T02:30:17;95322.25;;;4.79;62.19
5550;BME280;2798;42.716;23.256;2023-12-04T02:32:35;95330.94;;;4.75;61.79
5550;BME280;2798;42.716;23.256;2023-12-04T02:35:03;95319.94;;;4.73;61.65
5550;BME280;2798;42.716;23.256;2023-12-04T02:37:29;95316.56;;;4.73;61.68
5550;BME280;2798;42.716;23.256;2023-12-04T02:39:55;95320.84;;;4.72;61.25
5550;BME280;2798;42.716;23.256;2023-12-04T02:42:21;95323.47;;;4.70;62.02
5550;BME280;2798;42.716;23.256;2023-12-04T02:44:47;95330.22;;;4.72;61.67
5550;BME280;2798;42.716;23.256;2023-12-04T02:47:12;95315.88;;;4.69;61.94
5550;BME280;2798;42.716;23.256;2023-12-04T02:49:38;95324.38;;;4.68;61.58
5550;BME280;2798;42.716;23.256;2023-12-04T02:52:03;95319.34;;;4.66;61.68
5550;BME280;2798;42.716;23.256;2023-12-04T02:54:29;95320.31;;;4.64;61.88
5550;BME280;2798;42.716;23.256;2023-12-04T02:56:54;95320.38;;;4.62;61.51
5550;BME280;2798;42.716;23.256;2023-12-04T02:59:19;95316.16;;;4.61;61.83
5550;BME280;2798;42.716;23.256;2023-12-04T03:01:45;95329.78;;;4.60;61.65
5550;BME280;2798;42.716;23.256;2023-12-04T03:04:10;95322.22;;;4.58;61.84
5550;BME280;2798;42.716;23.256;2023-12-04T03:06:35;95323.91;;;4.58;61.97
5550;BME280;2798;42.716;23.256;2023-12-04T03:09:02;95329.06;;;4.56;61.37
5550;BME280;2798;42.716;23.256;2023-12-04T03:11:29;95330.03;;;4.54;61.44
5550;BME280;2798;42.716;23.256;2023-12-04T03:13:54;95319.06;;;4.52;61.78
5550;BME280;2798;42.716;23.256;2023-12-04T03:16:19;95323.34;;;4.51;61.69
5550;BME280;2798;42.716;23.256;2023-12-04T03:18:45;95324.28;;;4.49;61.15
5550;BME280;2798;42.716;23.256;2023-12-04T03:21:10;95324.34;;;4.47;61.78
5550;BME280;2798;42.716;23.256;2023-12-04T03:23:36;95327.84;;;4.44;61.61
5550;BME280;2798;42.716;23.256;2023-12-04T03:26:01;95329.56;;;4.44;62.38
5550;BME280;2798;42.716;23.256;2023-12-04T03:28:26;95325.41;;;4.41;62.15
5550;BME280;2798;42.716;23.256;2023-12-04T03:30:52;95333.19;;;4.38;61.63
5550;BME280;2798;42.716;23.256;2023-12-04T03:33:17;95326.41;;;4.37;61.63
5550;BME280;2798;42.716;23.256;2023-12-04T03:35:42;95316.22;;;4.37;62.14
5550;BME280;2798;42.716;23.256;2023-12-04T03:38:08;95340.94;;;4.35;62.02
5550;BME280;2798;42.716;23.256;2023-12-04T03:40:33;95329.13;;;4.32;61.86
5550;BME280;2798;42.716;23.256;2023-12-04T03:42:58;95332.69;;;4.28;61.47
5550;BME280;2798;42.716;23.256;2023-12-04T03:45:24;95359.94;;;4.26;61.13
5550;BME280;2798;42.716;23.256;2023-12-04T03:47:49;95330.44;;;4.20;60.69
5550;BME280;2798;42.716;23.256;2023-12-04T03:50:14;95344.41;;;4.10;60.22
5550;BME280;2798;42.716;23.256;2023-12-04T03:52:40;95353.91;;;4.05;61.09
5550;BME280;2798;42.716;23.256;2023-12-04T03:55:06;95344.00;;;3.97;61.46
5550;BME280;2798;42.716;23.256;2023-12-04T03:57:32;95344.41;;;3.86;60.07
5550;BME280;2798;42.716;23.256;2023-12-04T03:59:57;95344.06;;;3.71;61.06
5550;BME280;2798;42.716;23.256;2023-12-04T04:02:22;95343.56;;;3.62;61.38
5550;BME280;2798;42.716;23.256;2023-12-04T04:04:48;95342.94;;;3.55;61.83
5550;BME280;2798;42.716;23.256;2023-12-04T04:07:15;95347.31;;;3.51;63.00
5550;BME280;2798;42.716;23.256;2023-12-04T04:09:40;95346.56;;;3.48;61.98
5550;BME280;2798;42.716;23.256;2023-12-04T04:12:06;95346.84;;;3.40;61.57
5550;BME280;2798;42.716;23.256;2023-12-04T04:14:31;95345.22;;;3.37;63.30
5550;BME280;2798;42.716;23.256;2023-12-04T04:16:56;95352.91;;;3.36;64.33
5550;BME280;2798;42.716;23.256;2023-12-04T04:19:22;95352.91;;;3.36;63.48
5550;BME280;2798;42.716;23.256;2023-12-04T04:21:47;95351.34;;;3.31;64.54
5550;BME280;2798;42.716;23.256;2023-12-04T04:24:12;95359.00;;;3.31;64.26
5550;BME280;2798;42.716;23.256;2023-12-04T04:26:38;95362.56;;;3.26;65.14
5550;BME280;2798;42.716;23.256;2023-12-04T04:29:03;95361.69;;;3.27;64.32
5550;BME280;2798;42.716;23.256;2023-12-04T04:31:28;95370.38;;;3.19;65.45
5550;BME280;2798;42.716;23.256;2023-12-04T04:33:54;95370.38;;;3.19;65.66
5550;BME280;2798;42.716;23.256;2023-12-04T04:36:19;95368.78;;;3.17;66.29
5550;BME280;2798;42.716;23.256;2023-12-04T04:38:44;95366.41;;;3.12;66.15
5550;BME280;2798;42.716;23.256;2023-12-04T04:41:13;95368.94;;;3.12;65.88
5550;BME280;2798;42.716;23.256;2023-12-04T04:43:39;95372.22;;;3.16;66.70
5550;BME280;2798;42.716;23.256;2023-12-04T04:46:05;95373.19;;;3.12;66.07
5550;BME280;2798;42.716;23.256;2023-12-04T04:48:30;95371.72;;;3.04;66.39
5550;BME280;2798;42.716;23.256;2023-12-04T04:50:55;95381.06;;;3.04;66.63
5550;BME280;2798;42.716;23.256;2023-12-04T04:53:21;95384.44;;;3.04;67.43
5550;BME280;2798;42.716;23.256;2023-12-04T04:55:46;95379.47;;;3.01;66.60
5550;BME280;2798;42.716;23.256;2023-12-04T04:58:11;95388.84;;;2.99;65.91
5550;BME280;2798;42.716;23.256;2023-12-04T05:00:37;95386.44;;;2.94;67.03
5550;BME280;2798;42.716;23.256;2023-12-04T05:03:02;95381.25;;;2.97;67.45
5550;BME280;2798;42.716;23.256;2023-12-04T05:05:27;95383.81;;;2.97;66.65
5550;BME280;2798;42.716;23.256;2023-12-04T05:07:53;95381.41;;;2.93;66.02
5550;BME280;2798;42.716;23.256;2023-12-04T05:10:18;95384.06;;;2.90;66.35
5550;BME280;2798;42.716;23.256;2023-12-04T05:12:43;95397.56;;;2.90;66.93
5550;BME280;2798;42.716;23.256;2023-12-04T05:15:09;95394.47;;;2.82;66.18
5550;BME280;2798;42.716;23.256;2023-12-04T05:17:34;95404.72;;;2.79;66.90
5550;BME280;2798;42.716;23.256;2023-12-04T05:20:00;95403.84;;;2.80;66.68
5550;BME280;2798;42.716;23.256;2023-12-04T05:22:25;95399.56;;;2.82;67.14
5550;BME280;2798;42.716;23.256;2023-12-04T05:24:50;95405.50;;;2.81;65.88
5550;BME280;2798;42.716;23.256;2023-12-04T05:27:16;95404.78;;;2.77;66.55
5550;BME280;2798;42.716;23.256;2023-12-04T05:29:41;95391.28;;;2.75;66.83
5550;BME280;2798;42.716;23.256;2023-12-04T05:32:06;95395.53;;;2.75;66.06
5550;BME280;2798;42.716;23.256;2023-12-04T05:34:32;95408.38;;;2.70;65.25
5550;BME280;2798;42.716;23.256;2023-12-04T05:36:57;95407.72;;;2.63;64.88
5550;BME280;2798;42.716;23.256;2023-12-04T05:39:22;95406.06;;;2.62;66.12
5550;BME280;2798;42.716;23.256;2023-12-04T05:41:47;95402.69;;;2.62;65.97
5550;BME280;2798;42.716;23.256;2023-12-04T05:44:13;95407.84;;;2.58;66.28
5550;BME280;2798;42.716;23.256;2023-12-04T05:46:38;95398.59;;;2.57;65.74
5550;BME280;2798;42.716;23.256;2023-12-04T05:49:04;95405.28;;;2.60;66.58
5550;BME280;2798;42.716;23.256;2023-12-04T05:51:29;95404.31;;;2.64;65.69
5550;BME280;2798;42.716;23.256;2023-12-04T05:53:54;95406.97;;;2.61;66.36
5550;BME280;2798;42.716;23.256;2023-12-04T05:56:20;95417.94;;;2.62;65.55
5550;BME280;2798;42.716;23.256;2023-12-04T05:58:45;95406.84;;;2.64;66.42
5550;BME280;2798;42.716;23.256;2023-12-04T06:01:10;95413.59;;;2.65;66.22
5550;BME280;2798;42.716;23.256;2023-12-04T06:03:36;95415.25;;;2.66;66.82
5550;BME280;2798;42.716;23.256;2023-12-04T06:06:01;95413.59;;;2.65;66.78
5550;BME280;2798;42.716;23.256;2023-12-04T06:08:26;95413.47;;;2.70;66.42
5550;BME280;2798;42.716;23.256;2023-12-04T06:10:52;95408.38;;;2.70;66.86
5550;BME280;2798;42.716;23.256;2023-12-04T06:13:17;95409.44;;;2.63;67.23
5550;BME280;2798;42.716;23.256;2023-12-04T06:15:42;95415.16;;;2.69;67.48
5550;BME280;2798;42.716;23.256;2023-12-04T06:18:09;95418.22;;;2.81;67.72
5550;BME280;2798;42.716;23.256;2023-12-04T06:20:34;95422.38;;;2.83;68.58
5550;BME280;2798;42.716;23.256;2023-12-04T06:22:59;95428.22;;;2.86;68.17
5550;BME280;2798;42.716;23.256;2023-12-04T06:25:25;95422.25;;;2.88;67.92
5550;BME280;2798;42.716;23.256;2023-12-04T06:27:50;95426.38;;;2.91;68.95
5550;BME280;2798;42.716;23.256;2023-12-04T06:30:16;95436.41;;;2.95;68.67
5550;BME280;2798;42.716;23.256;2023-12-04T06:32:42;95433.78;;;2.99;67.57
5550;BME280;2798;42.716;23.256;2023-12-04T06:35:07;95437.91;;;3.03;68.65
5550;BME280;2798;42.716;23.256;2023-12-04T06:37:34;95433.53;;;3.06;67.44
5550;BME280;2798;42.716;23.256;2023-12-04T06:40:00;95449.63;;;3.07;68.37
5550;BME280;2798;42.716;23.256;2023-12-04T06:42:27;95452.09;;;3.10;67.58
5550;BME280;2798;42.716;23.256;2023-12-04T06:44:53;95448.44;;;3.19;67.62
5550;BME280;2798;42.716;23.256;2023-12-04T06:47:19;95457.88;;;3.15;68.09
5550;BME280;2798;42.716;23.256;2023-12-04T06:49:46;95461.91;;;3.21;67.64
5550;BME280;2798;42.716;23.256;2023-12-04T06:52:12;95457.47;;;3.28;67.66
5550;BME280;2798;42.716;23.256;2023-12-04T06:54:37;95470.00;;;3.34;67.61
5550;BME280;2798;42.716;23.256;2023-12-04T06:57:02;95453.88;;;3.35;67.82
5550;BME280;2798;42.716;23.256;2023-12-04T06:59:28;95462.16;;;3.40;66.97
5550;BME280;2798;42.716;23.256;2023-12-04T07:01:53;95458.59;;;3.46;66.75
5550;BME280;2798;42.716;23.256;2023-12-04T07:04:18;95458.56;;;3.48;66.02
5550;BME280;2798;42.716;23.256;2023-12-04T07:06:46;95463.59;;;3.49;66.05
5550;BME280;2798;42.716;23.256;2023-12-04T07:09:11;95459.03;;;3.59;66.81
5550;BME280;2798;42.716;23.256;2023-12-04T07:11:37;95461.47;;;3.62;66.38
5550;BME280;2798;42.716;23.256;2023-12-04T07:14:02;95462.31;;;3.63;66.06
5550;BME280;2798;42.716;23.256;2023-12-04T07:16:28;95458.84;;;3.65;66.60
5550;BME280;2798;42.716;23.256;2023-12-04T07:18:53;95469.69;;;3.70;66.01
5550;BME280;2798;42.716;23.256;2023-12-04T07:21:19;95474.78;;;3.70;65.89
5550;BME280;2798;42.716;23.256;2023-12-04T07:23:44;95479.00;;;3.71;66.12
5550;BME280;2798;42.716;23.256;2023-12-04T07:26:09;95466.25;;;3.71;66.79
5550;BME280;2798;42.716;23.256;2023-12-04T07:28:35;95474.84;;;3.69;66.32
5550;BME280;2798;42.716;23.256;2023-12-04T07:31:00;95472.91;;;3.76;66.53
5550;BME280;2798;42.716;23.256;2023-12-04T07:33:28;95480.41;;;3.80;66.72
5550;BME280;2798;42.716;23.256;2023-12-04T07:35:54;95471.09;;;3.79;65.93
5550;BME280;2798;42.716;23.256;2023-12-04T07:38:19;95472.72;;;3.82;66.04
5550;BME280;2798;42.716;23.256;2023-12-04T07:40:45;95472.63;;;3.85;65.84
5550;BME280;2798;42.716;23.256;2023-12-04T07:43:10;95466.63;;;3.86;65.53
5550;BME280;2798;42.716;23.256;2023-12-04T07:45:36;95475.13;;;3.87;66.07
5550;BME280;2798;42.716;23.256;2023-12-04T07:48:03;95468.22;;;3.89;65.99
5550;BME280;2798;42.716;23.256;2023-12-04T07:50:28;95463.03;;;3.92;65.81
5550;BME280;2798;42.716;23.256;2023-12-04T07:52:54;95457.94;;;3.92;64.47
5550;BME280;2798;42.716;23.256;2023-12-04T07:55:19;95468.06;;;3.93;64.61
5550;BME280;2798;42.716;23.256;2023-12-04T07:57:44;95479.06;;;3.95;64.31
5550;BME280;2798;42.716;23.256;2023-12-04T08:00:10;95490.06;;;3.96;63.91
5550;BME280;2798;42.716;23.256;2023-12-04T08:02:35;95486.63;;;3.97;63.69
5550;BME280;2798;42.716;23.256;2023-12-04T08:05:01;95488.22;;;4.01;63.05
5550;BME280;2798;42.716;23.256;2023-12-04T08:07:26;95482.22;;;4.02;62.84
5550;BME280;2798;42.716;23.256;2023-12-04T08:09:51;95484.72;;;4.04;62.49
5550;BME280;2798;42.716;23.256;2023-12-04T08:12:18;95426.59;;;3.66;62.28
5550;BME280;2798;42.716;23.256;2023-12-04T08:14:43;95486.31;;;4.06;62.64
5550;BME280;2798;42.716;23.256;2023-12-04T08:17:09;95484.44;;;4.12;63.08
5550;BME280;2798;42.716;23.256;2023-12-04T08:19:34;95484.34;;;4.15;62.99
5550;BME280;2798;42.716;23.256;2023-12-04T08:21:59;95484.22;;;4.18;62.21
5550;BME280;2798;42.716;23.256;2023-12-04T08:24:24;95482.47;;;4.20;62.36
5550;BME280;2798;42.716;23.256;2023-12-04T08:26:50;95489.13;;;4.24;62.75
5550;BME280;2798;42.716;23.256;2023-12-04T08:29:16;95496.66;;;4.27;61.98
5550;BME280;2798;42.716;23.256;2023-12-04T08:31:41;95489.84;;;4.28;61.10
5550;BME280;2798;42.716;23.256;2023-12-04T08:34:07;95483.00;;;4.30;61.35
5550;BME280;2798;42.716;23.256;2023-12-04T08:36:32;95423.91;;;3.94;61.32
5550;BME280;2798;42.716;23.256;2023-12-04T08:38:58;95486.25;;;4.33;61.00
5550;BME280;2798;42.716;23.256;2023-12-04T08:41:23;95491.19;;;4.38;61.52
5550;BME280;2798;42.716;23.256;2023-12-04T08:43:48;95483.31;;;4.44;60.85
5550;BME280;2798;42.716;23.256;2023-12-04T08:46:14;95475.69;;;4.44;60.75
5550;BME280;2798;42.716;23.256;2023-12-04T08:48:40;95484.88;;;4.49;60.96
5550;BME280;2798;42.716;23.256;2023-12-04T08:51:05;95493.25;;;4.52;60.92
5550;BME280;2798;42.716;23.256;2023-12-04T08:53:33;95477.09;;;4.52;60.70
5550;BME280;2798;42.716;23.256;2023-12-04T08:55:58;95475.22;;;4.57;60.77
5550;BME280;2798;42.716;23.256;2023-12-04T08:58:24;95473.25;;;4.65;60.81
5550;BME280;2798;42.716;23.256;2023-12-04T09:00:49;95468.97;;;4.66;61.01
5550;BME280;2798;42.716;23.256;2023-12-04T09:03:14;95472.16;;;4.71;60.59
5550;BME280;2798;42.716;23.256;2023-12-04T09:05:40;95462.56;;;4.78;61.08
5550;BME280;2798;42.716;23.256;2023-12-04T09:08:05;95466.69;;;4.82;60.46
5550;BME280;2798;42.716;23.256;2023-12-04T09:10:30;95464.03;;;4.85;60.72
5550;BME280;2798;42.716;23.256;2023-12-04T09:12:56;95453.63;;;4.90;60.93
5550;BME280;2798;42.716;23.256;2023-12-04T09:15:21;95456.88;;;4.93;60.62
5550;BME280;2798;42.716;23.256;2023-12-04T09:17:47;95461.88;;;4.97;59.26
5550;BME280;2798;42.716;23.256;2023-12-04T09:20:12;95456.69;;;4.98;59.54
5550;BME280;2798;42.716;23.256;2023-12-04T09:22:37;95460.81;;;5.02;60.02
5550;BME280;2798;42.716;23.256;2023-12-04T09:25:06;95454.75;;;5.05;60.39
5550;BME280;2798;42.716;23.256;2023-12-04T09:27:33;95412.94;;;4.87;60.78
5550;BME280;2798;42.716;23.256;2023-12-04T09:29:59;95443.38;;;5.14;60.43
5550;BME280;2798;42.716;23.256;2023-12-04T09:32:24;95446.63;;;5.17;60.76
5550;BME280;2798;42.716;23.256;2023-12-04T09:34:49;95443.13;;;5.20;60.96
5550;BME280;2798;42.716;23.256;2023-12-04T09:37:15;95452.38;;;5.23;60.76
5550;BME280;2798;42.716;23.256;2023-12-04T09:39:40;95449.50;;;5.30;60.35
5550;BME280;2798;42.716;23.256;2023-12-04T09:42:06;95445.19;;;5.32;61.04
5550;BME280;2798;42.716;23.256;2023-12-04T09:44:32;95443.22;;;5.39;57.22
5550;BME280;2798;42.716;23.256;2023-12-04T09:46:59;95438.13;;;5.39;56.99
5550;BME280;2798;42.716;23.256;2023-12-04T09:49:26;95439.88;;;5.37;56.98
5550;BME280;2798;42.716;23.256;2023-12-04T09:51:53;95432.88;;;5.42;54.86
5550;BME280;2798;42.716;23.256;2023-12-04T09:54:18;95426.94;;;5.42;54.46
5550;BME280;2798;42.716;23.256;2023-12-04T09:56:44;95427.19;;;5.36;54.62
5550;BME280;2798;42.716;23.256;2023-12-04T09:59:10;95426.25;;;5.38;54.48
5550;BME280;2798;42.716;23.256;2023-12-04T10:01:38;95427.13;;;5.37;54.40
5550;BME280;2798;42.716;23.256;2023-12-04T10:04:04;95416.25;;;5.32;54.13
5550;BME280;2798;42.716;23.256;2023-12-04T10:06:32;95419.59;;;5.34;54.42
5550;BME280;2798;42.716;23.256;2023-12-04T10:08:58;95418.72;;;5.35;53.78
5550;BME280;2798;42.716;23.256;2023-12-04T10:11:24;95413.78;;;5.30;53.57
5550;BME280;2798;42.716;23.256;2023-12-04T10:13:50;95426.47;;;5.32;54.28
5550;BME280;2798;42.716;23.256;2023-12-04T10:16:26;95427.31;;;5.32;53.40
5550;BME280;2798;42.716;23.256;2023-12-04T10:18:56;95427.31;;;5.32;53.40
5550;BME280;2798;42.716;23.256;2023-12-04T10:21:21;95422.03;;;5.37;53.23
5550;BME280;2798;42.716;23.256;2023-12-04T10:23:46;95408.13;;;5.44;53.14
5550;BME280;2798;42.716;23.256;2023-12-04T10:26:14;95410.03;;;5.39;52.80
5550;BME280;2798;42.716;23.256;2023-12-04T10:28:40;95402.50;;;5.36;53.50
5550;BME280;2798;42.716;23.256;2023-12-04T10:31:23;95392.16;;;5.39;52.96
5550;BME280;2798;42.716;23.256;2023-12-04T10:33:48;95390.66;;;5.35;52.93
5550;BME280;2798;42.716;23.256;2023-12-04T10:36:14;95392.50;;;5.31;53.21
5550;BME280;2798;42.716;23.256;2023-12-04T10:38:40;95395.75;;;5.35;53.21
5550;BME280;2798;42.716;23.256;2023-12-04T10:41:12;95392.41;;;5.33;52.88
5550;BME280;2798;42.716;23.256;2023-12-04T10:43:37;95391.19;;;5.42;52.53
5550;BME280;2798;42.716;23.256;2023-12-04T10:46:11;95383.66;;;5.39;52.44
5550;BME280;2798;42.716;23.256;2023-12-04T10:48:37;95388.19;;;5.32;52.58
5550;BME280;2798;42.716;23.256;2023-12-04T10:51:03;95386.34;;;5.36;53.62
5550;BME280;2798;42.716;23.256;2023-12-04T10:53:30;95384.69;;;5.35;52.98
5550;BME280;2798;42.716;23.256;2023-12-04T10:55:55;95385.53;;;5.35;52.84
5550;BME280;2798;42.716;23.256;2023-12-04T10:58:21;95401.00;;;5.30;53.30
5550;BME280;2798;42.716;23.256;2023-12-04T11:00:51;95388.16;;;5.34;53.41
5550;BME280;2798;42.716;23.256;2023-12-04T11:03:52;95392.28;;;5.36;53.70
5550;BME280;2798;42.716;23.256;2023-12-04T11:06:12;95382.09;;;5.36;54.26
5550;BME280;2798;42.716;23.256;2023-12-04T11:08:39;95372.00;;;5.33;53.86
5550;BME280;2798;42.716;23.256;2023-12-04T11:11:09;95375.34;;;5.35;53.77
5550;BME280;2798;42.716;23.256;2023-12-04T11:13:37;95373.53;;;5.37;54.10
5550;BME280;2798;42.716;23.256;2023-12-04T11:21:38;95358.84;;;5.42;53.85
5550;BME280;2798;42.716;23.256;2023-12-04T11:24:04;95363.75;;;5.47;53.74
5550;BME280;2798;42.716;23.256;2023-12-04T11:26:31;95363.81;;;5.46;53.70
5550;BME280;2798;42.716;23.256;2023-12-04T11:28:57;95365.53;;;5.45;54.07
5550;BME280;2798;42.716;23.256;2023-12-04T11:31:23;95357.94;;;5.43;53.79
5550;BME280;2798;42.716;23.256;2023-12-04T11:33:48;95350.22;;;5.45;54.42
5550;BME280;2798;42.716;23.256;2023-12-04T11:36:13;95370.59;;;5.47;54.83
5550;BME280;2798;42.716;23.256;2023-12-04T11:38:44;95346.88;;;5.44;54.47
5550;BME280;2798;42.716;23.256;2023-12-04T11:41:17;95342.44;;;5.48;55.11
5550;BME280;2798;42.716;23.256;2023-12-04T11:43:45;95336.38;;;5.51;55.31
5550;BME280;2798;42.716;23.256;2023-12-04T11:46:10;95334.69;;;5.51;55.13
5550;BME280;2798;42.716;23.256;2023-12-04T11:48:39;95339.66;;;5.54;55.37
5550;BME280;2798;42.716;23.256;2023-12-04T11:51:07;95338.53;;;5.60;55.47
5550;BME280;2798;42.716;23.256;2023-12-04T11:53:39;95329.25;;;5.59;55.57
5550;BME280;2798;42.716;23.256;2023-12-04T11:56:09;95318.06;;;5.62;55.56
5550;BME280;2798;42.716;23.256;2023-12-04T11:58:41;95314.34;;;5.69;55.24
5550;BME280;2798;42.716;23.256;2023-12-04T12:01:06;95318.63;;;5.68;55.41
5550;BME280;2798;42.716;23.256;2023-12-04T12:03:32;95315.22;;;5.68;55.35
5550;BME280;2798;42.716;23.256;2023-12-04T12:05:57;95324.38;;;5.74;55.75
5550;BME280;2798;42.716;23.256;2023-12-04T12:08:23;95321.03;;;5.72;55.82
5550;BME280;2798;42.716;23.256;2023-12-04T12:10:49;95320.13;;;5.73;55.87
5550;BME280;2798;42.716;23.256;2023-12-04T12:13:14;95313.16;;;5.76;56.66
5550;BME280;2798;42.716;23.256;2023-12-04T12:15:40;95297.91;;;5.75;55.84
5550;BME280;2798;42.716;23.256;2023-12-04T12:18:06;95306.41;;;5.75;55.94
5550;BME280;2798;42.716;23.256;2023-12-04T12:20:31;95303.78;;;5.77;55.97
5550;BME280;2798;42.716;23.256;2023-12-04T12:22:56;95306.22;;;5.80;55.31
5550;BME280;2798;42.716;23.256;2023-12-04T12:25:22;95296.19;;;5.75;55.56
5550;BME280;2798;42.716;23.256;2023-12-04T12:27:48;95291.75;;;5.79;55.53
5550;BME280;2798;42.716;23.256;2023-12-04T12:30:17;95295.38;;;5.75;55.42
5550;BME280;2798;42.716;23.256;2023-12-04T12:32:42;95287.63;;;5.76;56.01
5550;BME280;2798;42.716;23.256;2023-12-04T12:35:07;95285.91;;;5.77;55.78
5550;BME280;2798;42.716;23.256;2023-12-04T12:37:34;95282.44;;;5.78;55.21
5550;BME280;2798;42.716;23.256;2023-12-04T12:40:00;95289.22;;;5.79;55.52
5550;BME280;2798;42.716;23.256;2023-12-04T12:42:26;95278.03;;;5.81;55.76
5550;BME280;2798;42.716;23.256;2023-12-04T12:44:51;95294.00;;;5.87;61.09
5550;BME280;2798;42.716;23.256;2023-12-04T12:47:18;95283.50;;;6.32;83.86
5550;BME280;2798;42.716;23.256;2023-12-04T12:49:43;95284.25;;;6.34;71.87
5550;BME280;2798;42.716;23.256;2023-12-04T12:52:09;95280.94;;;6.32;64.99
5550;BME280;2798;42.716;23.256;2023-12-04T12:54:40;95269.88;;;6.31;63.46
5550;BME280;2798;42.716;23.256;2023-12-04T12:57:06;95263.19;;;6.28;62.24
5550;BME280;2798;42.716;23.256;2023-12-04T12:59:32;95263.50;;;6.22;60.99
5550;BME280;2798;42.716;23.256;2023-12-04T13:01:57;95260.16;;;6.20;60.21
5550;BME280;2798;42.716;23.256;2023-12-04T13:04:25;95261.00;;;6.21;59.72
5550;BME280;2798;42.716;23.256;2023-12-04T13:06:50;95268.78;;;6.17;59.37
5550;BME280;2798;42.716;23.256;2023-12-04T13:09:15;95268.06;;;6.15;58.88
5550;BME280;2798;42.716;23.256;2023-12-04T13:11:46;95269.69;;;6.16;58.86
5550;BME280;2798;42.716;23.256;2023-12-04T13:14:12;95265.78;;;6.09;57.93
5550;BME280;2798;42.716;23.256;2023-12-04T13:16:37;95272.63;;;6.09;57.66
5550;BME280;2798;42.716;23.256;2023-12-04T13:19:03;95271.63;;;6.11;57.81
5550;BME280;2798;42.716;23.256;2023-12-04T13:21:28;95281.78;;;6.13;57.11